createdAt,value
2023-02-03T00:01:30.284Z,2.60
2023-02-03T00:03:58.709Z,3.15
2023-02-03T00:06:28.498Z,5.20
2023-02-03T00:08:58.273Z,6.63
2023-02-03T00:11:27.116Z,6.97
2023-02-03T00:13:55.509Z,6.22
2023-02-03T00:16:24.000Z,5.28
2023-02-03T00:18:52.414Z,4.80
2023-02-03T00:21:20.844Z,4.97
2023-02-03T00:23:50.362Z,5.90
2023-02-03T00:26:19.314Z,5.28
2023-02-03T00:28:47.922Z,5.00
2023-02-03T00:31:19.782Z,4.75
2023-02-03T00:33:48.523Z,4.78
2023-02-03T00:36:16.995Z,4.78
2023-02-03T00:38:45.396Z,5.00
2023-02-03T00:41:15.139Z,4.72
2023-02-03T00:43:43.550Z,3.90
2023-02-03T00:46:12.086Z,3.65
2023-02-03T00:48:40.515Z,4.30
2023-02-03T00:51:09.092Z,4.40
2023-02-03T00:53:37.522Z,4.50
2023-02-03T00:56:12.478Z,4.07
2023-02-03T00:58:42.367Z,3.90
2023-02-03T01:01:10.892Z,3.78
2023-02-03T01:03:39.390Z,4.25
2023-02-03T01:06:12.260Z,4.00
2023-02-03T01:08:40.735Z,4.13
2023-02-03T01:11:09.957Z,3.83
2023-02-03T01:13:38.434Z,3.70
2023-02-03T01:16:11.535Z,3.45
2023-02-03T01:18:40.148Z,3.83
2023-02-03T01:21:09.737Z,3.30
2023-02-03T01:23:38.965Z,3.38
2023-02-03T01:26:09.833Z,3.50
2023-02-03T01:28:38.284Z,3.30
2023-02-03T01:31:16.196Z,3.63
2023-02-03T01:33:47.089Z,3.60
2023-02-03T01:36:16.439Z,3.60
2023-02-03T01:38:45.120Z,3.40
2023-02-03T01:41:15.585Z,3.30
2023-02-03T01:43:46.473Z,3.63
2023-02-03T01:46:26.605Z,3.70
2023-02-03T01:48:57.783Z,3.20
2023-02-03T01:51:26.447Z,3.17
2023-02-03T01:53:57.353Z,3.00
2023-02-03T01:56:29.378Z,3.00
2023-02-03T01:59:00.264Z,3.20
2023-02-03T02:01:31.288Z,2.88
2023-02-03T02:04:01.502Z,3.15
2023-02-03T02:06:29.951Z,3.33
2023-02-03T02:09:00.796Z,3.47
2023-02-03T02:11:29.923Z,3.25
2023-02-03T02:14:01.639Z,3.53
2023-02-03T02:16:43.229Z,3.25
2023-02-03T02:19:43.735Z,2.88
2023-02-03T02:22:20.175Z,3.10
2023-02-03T02:25:25.057Z,2.67
2023-02-03T02:28:30.557Z,3.08
2023-02-03T02:31:27.796Z,2.78
2023-02-03T02:34:03.603Z,2.78
2023-02-03T02:36:36.094Z,3.10
2023-02-03T02:39:11.063Z,2.72
2023-02-03T02:41:44.319Z,2.88
2023-02-03T02:44:19.573Z,2.85
2023-02-03T02:46:50.776Z,2.90
2023-02-03T02:49:24.414Z,2.92
2023-02-03T02:51:54.338Z,2.67
2023-02-03T02:54:26.517Z,2.50
2023-02-03T02:56:57.685Z,2.60
2023-02-03T02:59:26.158Z,3.20
2023-02-03T03:01:54.704Z,2.80
2023-02-03T03:04:26.792Z,2.50
2023-02-03T03:06:58.997Z,2.97
2023-02-03T03:09:35.950Z,2.88
2023-02-03T03:12:08.684Z,2.65
2023-02-03T03:14:41.296Z,3.03
2023-02-03T03:17:12.213Z,2.90
2023-02-03T03:19:46.004Z,2.35
2023-02-03T03:22:18.777Z,2.53
2023-02-03T03:24:51.750Z,2.38
2023-02-03T03:27:23.507Z,2.50
2023-02-03T03:29:55.329Z,2.97
2023-02-03T03:32:23.888Z,2.75
2023-02-03T03:34:54.117Z,2.72
2023-02-03T03:37:30.022Z,2.42
2023-02-03T03:40:01.014Z,2.58
2023-02-03T03:42:33.558Z,2.60
2023-02-03T03:45:07.511Z,2.50
2023-02-03T03:47:40.995Z,2.40
2023-02-03T03:50:15.631Z,2.10
2023-02-03T03:52:47.013Z,2.42
2023-02-03T03:55:17.686Z,2.70
2023-02-03T03:57:53.252Z,2.20
2023-02-03T04:00:24.291Z,2.70
2023-02-03T04:02:55.204Z,2.25
2023-02-03T04:05:26.373Z,2.40
2023-02-03T04:07:54.926Z,2.50
2023-02-03T04:10:31.628Z,2.20
2023-02-03T04:13:00.345Z,2.20
2023-02-03T04:15:29.063Z,2.10
2023-02-03T04:17:57.578Z,2.20
2023-02-03T04:20:27.350Z,2.20
2023-02-03T04:22:56.034Z,2.20
2023-02-03T04:25:24.519Z,2.53
2023-02-03T04:27:53.015Z,2.25
2023-02-03T04:30:21.513Z,2.13
2023-02-03T04:32:49.990Z,2.20
2023-02-03T04:35:18.606Z,2.30
2023-02-03T04:37:48.435Z,1.73
2023-02-03T04:40:16.908Z,1.80
2023-02-03T04:42:45.335Z,2.00
2023-02-03T04:45:14.072Z,2.22
2023-02-03T04:47:42.489Z,2.38
2023-02-03T04:50:11.204Z,2.58
2023-02-03T04:52:39.754Z,1.92
2023-02-03T04:55:09.899Z,1.80
2023-02-03T04:57:38.299Z,2.03
2023-02-03T05:00:07.699Z,2.30
2023-02-03T05:02:36.118Z,2.10
2023-02-03T05:05:04.543Z,2.00
2023-02-03T05:07:32.947Z,1.77
2023-02-03T05:10:01.416Z,1.40
2023-02-03T05:12:30.966Z,1.73
2023-02-03T05:14:59.385Z,1.70
2023-02-03T05:17:27.793Z,1.60
2023-02-03T05:19:56.272Z,1.50
2023-02-03T05:22:24.839Z,1.80
2023-02-03T05:24:53.261Z,1.92
2023-02-03T05:27:21.671Z,1.63
2023-02-03T05:29:51.194Z,1.60
2023-02-03T05:32:19.595Z,1.35
2023-02-03T05:34:48.235Z,1.30
2023-02-03T05:37:16.641Z,1.50
2023-02-03T05:39:45.077Z,1.40
2023-02-03T05:42:12.572Z,1.02
2023-02-03T05:44:41.449Z,1.08
2023-02-03T05:47:11.246Z,1.55
2023-02-03T05:49:39.692Z,0.90
2023-02-03T05:52:08.111Z,1.20
2023-02-03T05:54:36.575Z,2.50
2023-02-03T05:57:05.072Z,4.00
2023-02-03T05:59:33.513Z,4.43
2023-02-03T06:02:01.944Z,4.32
2023-02-03T06:04:31.807Z,3.45
2023-02-03T06:07:00.252Z,3.45
2023-02-03T06:09:28.707Z,3.42
2023-02-03T06:11:57.103Z,3.40
2023-02-03T06:14:25.539Z,3.45
2023-02-03T06:16:53.997Z,2.50
2023-02-03T06:19:22.435Z,2.90
2023-02-03T06:21:51.950Z,2.95
2023-02-03T06:24:20.347Z,2.60
2023-02-03T06:26:48.750Z,2.90
2023-02-03T06:29:17.162Z,2.40
2023-02-03T06:31:45.715Z,2.72
2023-02-03T06:34:14.195Z,2.00
2023-02-03T06:36:42.621Z,2.03
2023-02-03T06:39:12.166Z,2.05
2023-02-03T06:41:40.575Z,1.67
2023-02-03T06:44:09.317Z,1.90
2023-02-03T06:46:37.770Z,2.03
2023-02-03T06:49:06.219Z,2.17
2023-02-03T06:51:34.653Z,1.60
2023-02-03T06:54:03.511Z,2.25
2023-02-03T06:56:33.166Z,1.65
2023-02-03T06:59:01.589Z,2.08
2023-02-03T07:01:30.906Z,1.77
2023-02-03T07:03:59.432Z,1.63
2023-02-03T07:06:30.058Z,1.40
2023-02-03T07:09:00.684Z,1.70
2023-02-03T07:11:30.134Z,1.70
2023-02-03T07:13:59.979Z,1.65
2023-02-03T07:16:28.885Z,1.58
2023-02-03T07:18:57.271Z,1.80
2023-02-03T07:21:25.707Z,1.42
2023-02-03T07:23:54.136Z,1.58
2023-02-03T07:26:23.154Z,1.35
2023-02-03T07:28:52.510Z,1.50
2023-02-03T07:31:22.238Z,1.20
2023-02-03T07:33:50.674Z,1.83
2023-02-03T07:36:19.083Z,1.60
2023-02-03T07:38:47.475Z,1.38
2023-02-03T07:41:17.943Z,1.60
2023-02-03T07:43:46.601Z,1.50
2023-02-03T07:46:15.285Z,1.15
2023-02-03T07:48:44.863Z,1.45
2023-02-03T07:51:13.318Z,1.00
2023-02-03T07:53:41.700Z,1.33
2023-02-03T07:56:12.048Z,1.75
2023-02-03T07:58:40.495Z,1.30
2023-02-03T08:01:12.853Z,1.17
2023-02-03T08:03:41.407Z,1.30
2023-02-03T08:06:11.027Z,1.90
2023-02-03T08:08:40.050Z,1.83
2023-02-03T08:11:08.490Z,2.03
2023-02-03T08:13:36.882Z,1.90
2023-02-03T08:16:05.725Z,3.40
2023-02-03T08:18:33.913Z,3.00
2023-02-03T08:21:03.665Z,2.80
2023-02-03T08:23:33.315Z,2.95
2023-02-03T08:26:01.429Z,2.78
2023-02-03T08:28:29.573Z,3.55
2023-02-03T08:30:57.793Z,2.83
2023-02-03T08:33:26.065Z,2.35
2023-02-03T08:35:54.356Z,2.13
2023-02-03T08:38:22.644Z,2.17
2023-02-03T08:40:52.179Z,2.97
2023-02-03T08:43:20.385Z,1.90
2023-02-03T08:45:48.521Z,1.63
2023-02-03T08:48:16.809Z,3.00
2023-02-03T08:50:51.932Z,3.03
2023-02-03T08:53:20.342Z,2.80
2023-02-03T08:55:48.485Z,3.00
2023-02-03T08:58:18.102Z,2.50
2023-02-03T09:00:49.852Z,2.65
2023-02-03T09:03:18.128Z,2.78
2023-02-03T09:05:46.313Z,2.30
2023-02-03T09:08:14.447Z,2.58
2023-02-03T09:10:42.585Z,2.20
2023-02-03T09:13:10.723Z,2.50
2023-02-03T09:15:40.219Z,3.05
2023-02-03T09:18:08.358Z,3.50
2023-02-03T09:20:37.633Z,3.60
2023-02-03T09:23:05.975Z,3.40
2023-02-03T09:25:34.965Z,2.47
2023-02-03T09:28:03.230Z,2.40
2023-02-03T09:30:32.077Z,2.35
2023-02-03T09:33:01.743Z,2.65
2023-02-03T09:35:30.401Z,2.28
2023-02-03T09:38:00.786Z,2.63
2023-02-03T09:40:35.610Z,2.30
2023-02-03T09:43:18.838Z,2.25
2023-02-03T09:45:47.045Z,1.83
2023-02-03T09:48:21.616Z,1.75
2023-02-03T09:50:52.446Z,1.83
2023-02-03T09:53:29.099Z,1.70
2023-02-03T09:55:58.942Z,1.88
2023-02-03T09:58:30.125Z,1.52
2023-02-03T10:01:01.260Z,1.50
2023-02-03T10:03:38.127Z,1.65
2023-02-03T10:06:15.322Z,1.88
2023-02-03T10:09:04.245Z,2.08
2023-02-03T10:11:46.734Z,1.92
2023-02-03T10:14:29.074Z,1.40
2023-02-03T10:17:13.339Z,1.58
2023-02-03T10:19:48.041Z,1.40
2023-02-03T10:22:21.241Z,1.50
2023-02-03T10:24:52.706Z,1.25
2023-02-03T10:27:23.396Z,1.58
2023-02-03T10:29:58.805Z,1.30
2023-02-03T10:32:28.803Z,1.38
2023-02-03T10:37:31.102Z,1.30
2023-02-03T10:40:01.200Z,1.38
2023-02-03T10:47:51.155Z,1.25
2023-02-03T10:50:23.836Z,1.23
2023-02-03T10:52:52.047Z,1.05
2023-02-03T10:55:33.254Z,1.38
2023-02-03T10:58:13.423Z,1.50
2023-02-03T11:00:41.673Z,1.30
2023-02-03T11:03:24.087Z,1.15
2023-02-03T11:06:07.954Z,1.30
2023-02-03T11:08:37.609Z,1.67
2023-02-03T11:11:08.226Z,1.00
2023-02-03T11:13:36.860Z,1.52
2023-02-03T11:16:07.186Z,1.27
2023-02-03T11:18:45.055Z,1.60
2023-02-03T11:21:21.098Z,2.25
2023-02-03T11:23:59.139Z,1.70
2023-02-03T11:26:29.851Z,1.90
2023-02-03T11:29:00.566Z,2.45
2023-02-03T11:31:30.791Z,2.22
2023-02-03T11:34:01.793Z,2.13
2023-02-03T11:36:33.734Z,2.03
2023-02-03T11:39:26.338Z,2.88
2023-02-03T11:41:54.726Z,2.97
2023-02-03T11:44:26.299Z,4.22
2023-02-03T11:46:58.818Z,3.05
2023-02-03T11:49:52.023Z,2.60
2023-02-03T11:52:42.676Z,3.10
2023-02-03T11:55:22.499Z,3.35
2023-02-03T11:58:04.695Z,2.72
2023-02-03T12:00:42.327Z,2.60
2023-02-03T12:03:37.008Z,2.20
2023-02-03T12:06:25.745Z,2.75
2023-02-03T12:09:11.513Z,2.10
2023-02-03T12:11:59.583Z,1.80
2023-02-03T12:14:48.511Z,2.20
2023-02-03T12:17:40.900Z,2.53
2023-02-03T12:20:24.609Z,1.85
2023-02-03T12:23:05.373Z,1.80
2023-02-03T12:25:47.036Z,2.03
2023-02-03T12:28:33.777Z,1.40
2023-02-03T12:31:10.632Z,1.55
2023-02-03T12:33:44.363Z,1.50
2023-02-03T12:36:16.763Z,1.55
2023-02-03T12:38:49.606Z,1.40
2023-02-03T12:41:23.855Z,1.60
2023-02-03T12:43:54.345Z,1.38
2023-02-03T12:46:26.339Z,1.30
2023-02-03T12:49:00.844Z,1.77
2023-02-03T12:51:39.173Z,1.58
2023-02-03T12:54:14.988Z,1.20
2023-02-03T12:56:48.793Z,1.10
2023-02-03T12:59:23.341Z,1.30
2023-02-03T13:01:57.230Z,1.30
2023-02-03T13:04:32.472Z,1.48
2023-02-03T13:07:08.032Z,1.50
2023-02-03T13:09:42.021Z,1.70
2023-02-03T13:12:18.307Z,1.40
2023-02-03T13:14:50.318Z,1.30
2023-02-03T13:17:22.061Z,1.67
2023-02-03T13:19:54.163Z,1.10
2023-02-03T13:22:24.355Z,1.40
2023-02-03T13:24:58.659Z,2.83
2023-02-03T13:27:44.006Z,2.22
2023-02-03T13:30:42.386Z,2.53
2023-02-03T13:33:40.782Z,3.60
2023-02-03T13:36:28.241Z,2.92
2023-02-03T13:39:21.396Z,2.95
2023-02-03T13:41:53.291Z,1.92
2023-02-03T13:44:28.384Z,2.78
2023-02-03T13:46:58.784Z,2.92
2023-02-03T13:49:30.995Z,2.35
2023-02-03T13:51:59.608Z,2.65
2023-02-03T13:54:31.343Z,2.72
2023-02-03T13:57:02.430Z,2.72
2023-02-03T13:59:43.102Z,2.47
2023-02-03T14:02:43.052Z,2.53
2023-02-03T14:05:44.735Z,2.78
2023-02-03T14:08:49.407Z,2.80
2023-02-03T14:11:50.742Z,2.47
2023-02-03T14:15:03.097Z,2.60
2023-02-03T14:18:06.709Z,2.65
2023-02-03T14:21:13.454Z,2.55
2023-02-03T14:23:56.750Z,2.33
2023-02-03T14:26:34.348Z,2.50
2023-02-03T14:29:04.297Z,1.85
2023-02-03T14:34:31.226Z,2.50
2023-02-03T14:37:12.449Z,2.20
2023-02-03T14:40:11.287Z,2.13
2023-02-03T14:43:11.618Z,2.47
2023-02-03T14:46:29.581Z,2.45
2023-02-03T14:49:18.805Z,2.40
2023-02-03T14:52:04.664Z,2.50
2023-02-03T14:54:51.079Z,2.50
2023-02-03T14:57:36.415Z,2.28
2023-02-03T15:00:07.626Z,2.45
2023-02-03T15:02:36.682Z,2.20
2023-02-03T15:05:38.082Z,2.45
2023-02-03T15:08:06.378Z,2.28
2023-02-03T15:10:43.682Z,2.60
2023-02-03T15:13:25.950Z,2.90
2023-02-03T15:15:56.561Z,2.38
2023-02-03T15:18:30.944Z,2.42
2023-02-03T15:21:00.726Z,2.30
2023-02-03T15:23:31.021Z,1.98
2023-02-03T15:26:00.743Z,2.17
2023-02-03T15:28:30.863Z,2.40
2023-02-03T15:31:04.299Z,2.28
2023-02-03T15:33:34.929Z,2.30
2023-02-03T15:36:08.912Z,2.72
2023-02-03T15:38:42.034Z,2.28
2023-02-03T15:41:18.313Z,2.53
2023-02-03T15:43:48.713Z,2.03
2023-02-03T15:46:19.989Z,3.95
2023-02-03T15:48:53.046Z,3.65
2023-02-03T15:51:27.523Z,3.60
2023-02-03T15:54:00.535Z,3.08
2023-02-03T15:56:37.826Z,3.38
2023-02-03T15:59:06.377Z,3.55
2023-02-03T16:01:34.813Z,3.60
2023-02-03T16:04:03.124Z,2.90
2023-02-03T16:06:38.448Z,3.08
2023-02-03T16:09:08.294Z,3.17
2023-02-03T16:11:38.229Z,2.70
2023-02-03T16:16:39.735Z,3.17
2023-02-03T16:19:14.318Z,3.42
2023-02-03T16:21:55.588Z,3.08
2023-02-03T16:24:38.684Z,3.38
2023-02-03T16:27:34.066Z,3.38
2023-02-03T16:30:40.865Z,3.15
2023-02-03T16:33:33.360Z,2.17
2023-02-03T16:36:28.533Z,3.13
2023-02-03T16:39:19.720Z,3.17
2023-02-03T16:42:05.245Z,2.95
2023-02-03T16:44:50.863Z,3.00
2023-02-03T16:47:43.487Z,2.67
2023-02-03T16:50:38.776Z,2.63
2023-02-03T16:53:10.532Z,2.75
2023-02-03T16:55:40.110Z,2.40
2023-02-03T16:58:08.749Z,2.65
2023-02-03T17:00:36.919Z,1.98
2023-02-03T17:03:06.362Z,2.63
2023-02-03T17:05:38.742Z,2.17
2023-02-03T17:08:06.900Z,2.33
2023-02-03T17:10:35.562Z,2.63
2023-02-03T17:13:05.909Z,2.70
2023-02-03T17:15:34.077Z,2.33
2023-02-03T17:18:02.457Z,2.63
2023-02-03T17:20:30.685Z,2.45
2023-02-03T17:22:58.815Z,2.00
2023-02-03T17:25:27.535Z,2.45
2023-02-03T17:27:55.927Z,2.42
2023-02-03T17:30:25.459Z,2.17
2023-02-03T17:32:53.586Z,1.90
2023-02-03T17:35:21.760Z,2.40
2023-02-03T17:37:49.881Z,1.90
2023-02-03T17:54:12.219Z,2.58
2023-02-03T17:56:40.324Z,2.50
2023-02-03T17:59:08.522Z,2.60
2023-02-03T18:01:38.922Z,3.67
2023-02-03T18:04:08.890Z,3.20
2023-02-03T18:09:06.580Z,2.30
2023-02-03T18:11:36.032Z,2.63
2023-02-03T18:14:05.427Z,2.60
2023-02-03T18:16:35.763Z,3.10
2023-02-03T18:19:06.812Z,2.63
2023-02-03T18:21:36.943Z,2.78
2023-02-03T18:24:06.645Z,2.70
2023-02-03T18:26:37.088Z,2.95
2023-02-03T18:29:07.248Z,2.30
2023-02-03T18:31:37.509Z,2.50
2023-02-03T18:34:07.117Z,3.08
2023-02-03T18:36:35.258Z,2.33
2023-02-03T18:39:03.559Z,2.17
2023-02-03T18:41:32.020Z,2.90
2023-02-03T18:44:00.141Z,2.75
2023-02-03T18:46:30.005Z,2.38
2023-02-03T18:48:58.309Z,2.60
2023-02-03T18:51:28.852Z,2.15
2023-02-03T18:53:59.235Z,2.55
2023-02-03T18:56:34.892Z,2.70
2023-02-03T18:59:06.024Z,2.38
2023-02-03T19:01:34.494Z,2.70
2023-02-03T19:04:04.374Z,3.00
2023-02-03T19:06:35.906Z,2.25
2023-02-03T19:09:05.455Z,2.53
2023-02-03T19:11:35.110Z,2.15
2023-02-03T19:14:03.520Z,2.53
2023-02-03T19:16:31.876Z,2.50
2023-02-03T19:19:00.031Z,2.40
2023-02-03T19:21:28.171Z,2.05
2023-02-03T19:23:57.685Z,2.33
2023-02-03T19:26:27.774Z,2.35
2023-02-03T19:28:56.347Z,2.17
2023-02-03T19:31:24.678Z,2.10
2023-02-03T19:33:52.848Z,2.30
2023-02-03T19:36:20.998Z,2.10
2023-02-03T19:38:49.698Z,2.20
2023-02-03T19:41:19.457Z,2.22
2023-02-03T19:43:47.893Z,1.90
2023-02-03T19:46:16.128Z,1.80
2023-02-03T19:48:44.322Z,2.28
2023-02-03T19:51:13.893Z,1.92
2023-02-03T19:53:42.048Z,3.08
2023-02-03T19:56:10.292Z,2.80
2023-02-03T19:58:39.807Z,2.55
2023-02-03T20:01:08.131Z,2.72
2023-02-03T20:03:36.264Z,2.35
2023-02-03T20:06:05.109Z,2.30
2023-02-03T20:08:33.227Z,1.88
2023-02-03T20:11:01.442Z,2.40
2023-02-03T20:13:30.204Z,2.40
2023-02-03T20:15:59.913Z,2.50
2023-02-03T20:18:28.153Z,2.47
2023-02-03T20:20:58.108Z,1.95
2023-02-03T20:25:54.847Z,2.30
2023-02-03T20:28:24.202Z,2.25
2023-02-03T20:30:52.974Z,2.05
2023-02-03T20:33:22.720Z,2.67
2023-02-03T20:35:51.037Z,1.90
2023-02-03T20:38:19.417Z,2.05
2023-02-03T20:40:47.578Z,2.13
2023-02-03T20:43:19.555Z,1.85
2023-02-03T20:45:49.497Z,2.15
2023-02-03T20:50:48.555Z,1.92
2023-02-03T20:53:20.065Z,2.00
2023-02-03T20:55:48.524Z,2.13
2023-02-03T20:58:23.313Z,1.67
2023-02-03T21:00:52.452Z,1.98
2023-02-03T21:03:38.622Z,2.27
2023-02-03T21:06:14.583Z,2.20
2023-02-03T21:08:43.191Z,2.13
2023-02-03T21:11:13.707Z,2.15
2023-02-03T21:13:43.623Z,1.90
2023-02-03T21:18:49.776Z,2.25
2023-02-03T21:21:24.862Z,2.25
2023-02-03T21:23:53.984Z,2.28
2023-02-03T21:26:23.971Z,2.38
2023-02-03T21:31:25.295Z,2.58
2023-02-03T21:33:54.356Z,2.50
2023-02-03T21:36:26.017Z,2.22
2023-02-03T21:38:55.744Z,1.83
2023-02-03T21:41:25.983Z,2.50
2023-02-03T21:43:55.400Z,2.53
2023-02-03T21:46:26.766Z,2.05
2023-02-03T21:48:55.971Z,1.52
2023-02-03T21:51:27.971Z,2.17
2023-02-03T21:53:59.029Z,2.40
2023-02-03T21:56:30.134Z,2.17
2023-02-03T21:58:59.977Z,2.05
2023-02-03T22:01:33.343Z,2.22
2023-02-03T22:04:02.361Z,2.80
2023-02-03T22:06:42.427Z,2.30
2023-02-03T22:11:39.817Z,2.70
2023-02-03T22:14:08.636Z,2.05
2023-02-03T22:16:37.300Z,2.30
2023-02-03T22:19:05.477Z,2.42
2023-02-03T22:21:35.053Z,1.95
2023-02-03T22:24:03.707Z,1.88
2023-02-03T22:26:31.987Z,2.08
2023-02-03T22:29:00.212Z,2.30
2023-02-03T22:31:28.466Z,1.80
2023-02-03T22:33:56.647Z,1.70
2023-02-03T22:36:25.860Z,2.22
2023-02-03T22:38:55.373Z,2.20
2023-02-03T22:41:23.563Z,2.13
2023-02-03T22:43:51.709Z,1.83
2023-02-03T22:46:20.173Z,2.35
2023-02-03T22:48:48.371Z,2.17
2023-02-03T22:51:16.497Z,1.92
2023-02-03T22:53:44.632Z,1.90
2023-02-03T22:56:14.136Z,2.28
2023-02-03T22:58:42.394Z,1.67
2023-02-03T23:01:10.532Z,2.22
2023-02-03T23:03:38.756Z,2.35
2023-02-03T23:06:07.211Z,2.58
2023-02-03T23:08:35.378Z,2.45
2023-02-03T23:11:03.500Z,1.63
2023-02-03T23:13:33.014Z,2.28
2023-02-03T23:16:01.213Z,2.30
2023-02-03T23:18:29.376Z,2.17
2023-02-03T23:20:57.518Z,2.75
2023-02-03T23:23:25.731Z,2.03
2023-02-03T23:25:53.874Z,1.90
2023-02-03T23:28:22.013Z,2.00
2023-02-03T23:30:51.634Z,2.10
2023-02-03T23:33:19.849Z,1.88
2023-02-03T23:35:47.021Z,1.95
2023-02-03T23:38:15.952Z,1.83
2023-02-03T23:40:44.989Z,1.88
2023-02-03T23:43:13.164Z,1.67
2023-02-03T23:45:42.110Z,2.00
2023-02-03T23:48:12.473Z,1.85
2023-02-03T23:50:40.790Z,2.10
2023-02-03T23:53:08.966Z,2.15
2023-02-03T23:55:37.415Z,2.10
2023-02-03T23:58:06.071Z,1.80
